createdAt,value
2023-03-13T08:03:24.865Z,7.10
2023-03-13T08:03:52.253Z,6.70
2023-03-13T08:04:15.934Z,6.40
2023-03-13T08:04:38.778Z,6.30
2023-03-13T08:05:01.449Z,6.20
2023-03-13T08:05:24.692Z,6.20
2023-03-13T08:05:47.373Z,6.10
2023-03-13T08:06:11.000Z,6.10
2023-03-13T08:06:35.695Z,6.10
2023-03-13T08:06:58.793Z,6.10
2023-03-13T08:07:21.520Z,6.00
2023-03-13T08:07:45.075Z,6.00
2023-03-13T08:08:07.848Z,6.00
2023-03-13T08:08:33.778Z,5.90
2023-03-13T08:08:57.938Z,5.90
2023-03-13T08:09:20.843Z,5.90
2023-03-13T08:09:46.092Z,5.80
2023-03-13T08:10:12.107Z,5.90
2023-03-13T08:10:34.717Z,5.90
2023-03-13T08:11:01.348Z,6.00
2023-03-13T08:11:25.331Z,6.10
2023-03-13T08:11:49.314Z,6.10
2023-03-13T08:12:11.978Z,6.20
2023-03-13T08:12:34.720Z,6.10
2023-03-13T08:12:57.447Z,6.10
2023-03-13T08:13:22.726Z,6.10
2023-03-13T08:13:45.454Z,6.10
2023-03-13T08:14:08.548Z,6.20
2023-03-13T08:14:31.345Z,6.20
2023-03-13T08:14:54.696Z,6.20
2023-03-13T08:15:21.751Z,6.30
2023-03-13T08:15:44.473Z,6.30
2023-03-13T08:16:08.492Z,6.30
2023-03-13T08:16:34.420Z,6.30
2023-03-13T08:16:57.377Z,6.30
2023-03-13T08:17:20.233Z,6.20
2023-03-13T08:17:42.895Z,6.20
2023-03-13T08:18:05.774Z,6.10
2023-03-13T08:18:28.451Z,6.20
2023-03-13T08:18:53.444Z,6.10
2023-03-13T08:19:16.173Z,6.00
2023-03-13T08:19:39.120Z,5.90
2023-03-13T08:20:01.820Z,5.90
2023-03-13T08:20:24.641Z,5.90
2023-03-13T08:20:47.343Z,5.90
2023-03-13T08:21:11.388Z,5.90
2023-03-13T08:21:34.715Z,5.90
2023-03-13T08:21:57.523Z,5.80
2023-03-13T08:22:20.259Z,5.70
2023-03-13T08:22:43.063Z,5.80
2023-03-13T08:23:05.784Z,5.70
2023-03-13T08:23:28.537Z,5.70
2023-03-13T08:23:53.296Z,5.80
2023-03-13T08:24:16.031Z,5.80
2023-03-13T08:24:38.771Z,5.80
2023-03-13T08:25:01.523Z,5.80
2023-03-13T08:25:24.248Z,5.80
2023-03-13T08:25:47.039Z,5.90
2023-03-13T08:26:11.192Z,5.90
2023-03-13T08:26:34.477Z,6.00
2023-03-13T08:26:59.584Z,6.00
2023-03-13T08:27:22.192Z,5.90
2023-03-13T08:27:44.955Z,6.00
2023-03-13T08:28:07.667Z,5.90
2023-03-13T08:28:30.481Z,5.90
2023-03-13T08:28:54.184Z,5.90
2023-03-13T08:29:17.061Z,6.00
2023-03-13T08:29:39.728Z,5.90
2023-03-13T08:30:05.538Z,5.90
2023-03-13T08:30:28.341Z,5.80
2023-03-13T08:30:53.826Z,5.80
2023-03-13T08:31:17.651Z,5.80
2023-03-13T08:31:43.563Z,5.70
2023-03-13T08:32:06.587Z,5.70
2023-03-13T08:32:29.361Z,5.70
2023-03-13T08:32:52.174Z,5.60
2023-03-13T08:33:15.565Z,5.60
2023-03-13T08:33:40.563Z,5.60
2023-03-13T08:34:04.878Z,5.60
2023-03-13T08:34:27.677Z,5.60
2023-03-13T08:34:50.499Z,5.60
2023-03-13T08:35:13.203Z,5.70
2023-03-13T08:35:35.960Z,5.60
2023-03-13T08:35:58.925Z,5.60
2023-03-13T08:36:25.086Z,5.60
2023-03-13T08:36:47.974Z,5.50
2023-03-13T08:37:10.720Z,5.50
2023-03-13T08:37:33.441Z,5.50
2023-03-13T08:37:56.378Z,5.50
2023-03-13T08:38:19.204Z,5.50
2023-03-13T08:38:45.875Z,5.50
2023-03-13T08:39:11.732Z,5.50
2023-03-13T08:39:34.559Z,5.60
2023-03-13T08:39:57.367Z,5.60
2023-03-13T08:40:20.065Z,5.60
2023-03-13T08:40:42.806Z,5.60
2023-03-13T08:41:05.686Z,5.60
2023-03-13T08:41:29.423Z,5.60
2023-03-13T08:41:52.194Z,5.60
2023-03-13T08:42:15.044Z,5.70
2023-03-13T08:42:39.170Z,5.70
2023-03-13T08:43:02.026Z,5.80
2023-03-13T08:43:24.726Z,5.80
2023-03-13T08:43:47.632Z,5.80
2023-03-13T08:44:11.611Z,5.90
2023-03-13T08:44:34.492Z,6.00
2023-03-13T08:44:57.209Z,6.00
2023-03-13T08:45:20.002Z,6.10
2023-03-13T08:45:42.828Z,6.10
2023-03-13T08:46:05.979Z,6.10
2023-03-13T08:46:29.850Z,6.10
2023-03-13T08:46:52.661Z,6.10
2023-03-13T08:47:15.435Z,6.10
2023-03-13T08:47:38.145Z,6.20
2023-03-13T08:48:01.170Z,6.20
2023-03-13T08:48:23.925Z,6.20
2023-03-13T08:48:50.422Z,6.20
2023-03-13T08:49:17.797Z,6.30
2023-03-13T08:49:40.658Z,6.30
2023-03-13T08:50:06.049Z,6.40
2023-03-13T08:50:29.342Z,6.40
2023-03-13T08:51:01.691Z,6.50
2023-03-13T08:51:27.917Z,6.50
2023-03-13T08:51:50.647Z,6.60
2023-03-13T08:52:13.442Z,6.60
2023-03-13T08:52:36.158Z,6.60
2023-03-13T08:52:58.877Z,6.70
2023-03-13T08:53:21.609Z,6.70
2023-03-13T08:53:44.384Z,6.70
2023-03-13T08:54:08.247Z,6.80
2023-03-13T08:54:30.924Z,6.80
2023-03-13T08:54:53.664Z,6.80
2023-03-13T08:55:16.451Z,6.80
2023-03-13T08:55:39.081Z,6.90
2023-03-13T08:56:02.031Z,7.00
2023-03-13T08:56:25.970Z,7.00
2023-03-13T08:56:48.780Z,7.10
2023-03-13T08:57:11.436Z,7.20
2023-03-13T08:57:36.376Z,7.20
2023-03-13T08:57:59.176Z,7.30
2023-03-13T08:58:21.876Z,7.30
2023-03-13T08:58:44.638Z,7.30
2023-03-13T08:59:07.389Z,7.30
2023-03-13T08:59:30.325Z,7.30
2023-03-13T08:59:53.059Z,7.30
2023-03-13T09:00:19.734Z,7.30
2023-03-13T09:00:42.442Z,7.30
2023-03-13T09:01:05.909Z,7.30
2023-03-13T09:01:29.961Z,7.30
2023-03-13T09:01:52.712Z,7.30
2023-03-13T09:02:20.115Z,7.30
2023-03-13T09:02:43.106Z,7.20
2023-03-13T09:03:06.043Z,7.20
2023-03-13T09:03:28.874Z,7.20
2023-03-13T09:03:52.650Z,7.20
2023-03-13T09:04:16.826Z,7.20
2023-03-13T09:04:39.901Z,7.30
2023-03-13T09:05:02.613Z,7.40
2023-03-13T09:05:25.340Z,7.40
2023-03-13T09:05:55.987Z,7.50
2023-03-13T09:06:19.479Z,7.50
2023-03-13T09:06:42.279Z,7.70
2023-03-13T09:07:05.075Z,7.70
2023-03-13T09:07:27.876Z,7.70
2023-03-13T09:07:52.817Z,7.70
2023-03-13T09:08:16.652Z,7.70
2023-03-13T09:08:39.992Z,7.80
2023-03-13T09:09:05.958Z,7.80
2023-03-13T09:09:28.719Z,7.80
2023-03-13T09:09:51.471Z,7.80
2023-03-13T09:10:14.913Z,7.80
2023-03-13T09:10:37.606Z,7.80
2023-03-13T09:11:01.115Z,7.80
2023-03-13T09:11:23.787Z,7.80
2023-03-13T09:11:46.569Z,7.80
2023-03-13T09:12:24.608Z,7.80
2023-03-13T09:12:52.641Z,7.90
2023-03-13T09:13:15.383Z,8.00
2023-03-13T09:13:39.607Z,8.00
2023-03-13T09:14:02.332Z,8.00
2023-03-13T09:14:25.062Z,8.00
2023-03-13T09:14:48.729Z,8.00
2023-03-13T09:15:11.952Z,8.00
2023-03-13T09:15:34.960Z,8.00
2023-03-13T09:15:57.754Z,8.10
2023-03-13T09:16:22.652Z,8.10
2023-03-13T09:16:46.519Z,8.20
2023-03-13T09:17:09.261Z,8.30
2023-03-13T09:17:31.983Z,8.50
2023-03-13T09:17:54.882Z,8.60
2023-03-13T09:18:17.773Z,8.70
2023-03-13T09:18:40.596Z,8.80
2023-03-13T09:19:03.538Z,8.90
2023-03-13T09:19:27.734Z,8.90
2023-03-13T09:19:59.755Z,9.00
2023-03-13T09:20:23.716Z,9.10
2023-03-13T09:20:48.608Z,9.20
2023-03-13T09:21:13.630Z,9.30
2023-03-13T09:21:36.370Z,9.40
2023-03-13T09:21:59.202Z,9.40
2023-03-13T09:22:21.932Z,9.50
2023-03-13T09:22:44.588Z,9.50
2023-03-13T09:23:07.352Z,9.60
2023-03-13T09:23:30.080Z,9.60
2023-03-13T09:23:52.868Z,9.50
2023-03-13T09:24:15.875Z,9.50
2023-03-13T09:24:38.615Z,9.50
2023-03-13T09:25:01.307Z,9.30
2023-03-13T09:25:24.061Z,9.30
2023-03-13T09:25:46.785Z,9.30
2023-03-13T09:26:09.690Z,9.20
2023-03-13T09:26:32.984Z,9.20
2023-03-13T09:27:01.246Z,9.20
2023-03-13T09:27:24.335Z,9.20
2023-03-13T09:27:47.126Z,9.20
2023-03-13T09:28:09.847Z,9.10
2023-03-13T09:28:34.905Z,9.10
2023-03-13T09:28:57.683Z,9.10
2023-03-13T09:29:20.490Z,9.00
2023-03-13T09:29:43.205Z,9.10
2023-03-13T09:30:07.575Z,9.00
2023-03-13T09:30:30.317Z,9.10
2023-03-13T09:30:53.360Z,9.10
2023-03-13T09:31:17.101Z,9.10
2023-03-13T09:31:41.457Z,9.10
2023-03-13T09:32:05.016Z,9.00
2023-03-13T09:32:27.746Z,9.10
2023-03-13T09:32:50.496Z,9.00
2023-03-13T09:33:13.164Z,9.00
2023-03-13T09:33:35.846Z,9.00
2023-03-13T09:33:58.568Z,8.90
2023-03-13T09:34:23.528Z,8.90
2023-03-13T09:34:47.884Z,8.80
2023-03-13T09:35:10.582Z,8.80
2023-03-13T09:35:33.417Z,8.80
2023-03-13T09:35:56.259Z,8.80
2023-03-13T09:36:22.124Z,8.80
2023-03-13T09:36:45.511Z,8.80
2023-03-13T09:37:08.959Z,8.70
2023-03-13T09:37:31.799Z,8.70
2023-03-13T09:37:54.775Z,8.60
2023-03-13T09:38:17.600Z,8.60
2023-03-13T09:38:40.485Z,8.60
2023-03-13T09:39:03.211Z,8.60
2023-03-13T09:39:25.941Z,8.60
2023-03-13T09:39:49.298Z,8.60
2023-03-13T09:40:15.213Z,8.60
2023-03-13T09:40:39.235Z,8.70
2023-03-13T09:41:06.464Z,8.70
2023-03-13T09:41:33.450Z,8.70
2023-03-13T09:42:00.637Z,8.80
2023-03-13T09:42:28.196Z,8.90
2023-03-13T09:42:52.468Z,8.90
2023-03-13T09:43:23.930Z,8.90
2023-03-13T09:43:48.149Z,9.00
2023-03-13T09:44:17.133Z,9.00
2023-03-13T09:44:40.729Z,9.00
2023-03-13T09:45:05.615Z,8.90
2023-03-13T09:45:34.031Z,8.90
2023-03-13T09:45:59.230Z,8.90
2023-03-13T09:46:27.734Z,8.90
2023-03-13T09:46:58.874Z,9.00
2023-03-13T09:47:23.564Z,8.90
2023-03-13T09:47:47.459Z,8.90
2023-03-13T09:48:12.851Z,9.00
2023-03-13T09:48:37.764Z,9.00
2023-03-13T09:49:01.290Z,9.00
2023-03-13T09:49:30.202Z,9.00
2023-03-13T09:49:55.964Z,9.10
2023-03-13T09:50:20.185Z,9.10
2023-03-13T09:50:43.970Z,9.10
2023-03-13T09:51:08.979Z,9.10
2023-03-13T09:51:35.306Z,9.20
2023-03-13T09:52:05.928Z,9.10
2023-03-13T09:52:31.252Z,9.20
2023-03-13T09:52:56.484Z,9.30
2023-03-13T09:53:25.843Z,9.40
2023-03-13T09:53:52.186Z,9.40
2023-03-13T09:54:22.843Z,9.50
2023-03-13T09:54:49.364Z,9.50
2023-03-13T09:55:15.721Z,9.60
2023-03-13T09:55:38.375Z,9.60
2023-03-13T09:56:01.138Z,9.60
2023-03-13T09:56:29.451Z,9.60
2023-03-13T09:56:55.137Z,9.60
2023-03-13T09:57:22.745Z,9.60
2023-03-13T09:57:49.344Z,9.60
2023-03-13T09:58:13.757Z,9.60
2023-03-13T09:58:36.618Z,9.60
2023-03-13T09:59:02.803Z,9.60
2023-03-13T09:59:33.111Z,9.60
2023-03-13T09:59:57.891Z,9.70
2023-03-13T10:00:24.622Z,9.70
2023-03-13T10:00:48.808Z,9.70
2023-03-13T10:01:11.487Z,9.80
2023-03-13T10:01:34.326Z,9.80
2023-03-13T10:01:58.560Z,9.80
2023-03-13T10:02:29.899Z,9.90
2023-03-13T10:02:56.796Z,9.90
2023-03-13T10:03:22.769Z,10.00
2023-03-13T10:03:50.131Z,10.10
2023-03-13T10:04:21.813Z,10.10
2023-03-13T10:04:46.236Z,10.20
2023-03-13T10:05:15.415Z,10.30
2023-03-13T10:05:39.600Z,10.20
2023-03-13T10:06:04.679Z,10.20
2023-03-13T10:06:27.503Z,10.20
2023-03-13T10:06:52.242Z,10.20
2023-03-13T10:07:14.960Z,10.20
2023-03-13T10:07:37.763Z,10.30
2023-03-13T10:08:17.615Z,10.20
2023-03-13T10:08:40.341Z,10.30
2023-03-13T10:09:03.026Z,10.30
2023-03-13T10:09:29.786Z,10.30
2023-03-13T10:09:53.813Z,10.40
2023-03-13T10:10:18.428Z,10.50
2023-03-13T10:10:47.523Z,10.50
2023-03-13T10:11:11.714Z,10.60
2023-03-13T10:11:37.637Z,10.60
2023-03-13T10:12:07.090Z,10.60
2023-03-13T10:12:30.856Z,10.60
2023-03-13T10:12:56.346Z,10.60
2023-03-13T10:13:22.641Z,10.60
2023-03-13T10:13:47.930Z,10.60
2023-03-13T10:14:13.803Z,10.60
2023-03-13T10:14:43.696Z,10.60
2023-03-13T10:15:32.867Z,10.70
2023-03-13T10:15:56.694Z,10.70
2023-03-13T10:16:22.505Z,10.70
2023-03-13T10:16:46.713Z,10.70
2023-03-13T10:17:14.739Z,10.60
2023-03-13T10:17:38.236Z,10.60
2023-03-13T10:18:03.374Z,10.60
2023-03-13T10:18:26.834Z,10.50
2023-03-13T10:18:53.120Z,10.50
2023-03-13T10:19:17.525Z,10.50
2023-03-13T10:19:43.572Z,10.50
2023-03-13T10:20:17.599Z,10.50
2023-03-13T10:20:40.660Z,10.50
2023-03-13T10:21:10.700Z,10.50
2023-03-13T10:21:34.437Z,10.50
2023-03-13T10:21:57.375Z,10.50
2023-03-13T10:22:22.411Z,10.50
2023-03-13T10:22:45.921Z,10.50
2023-03-13T10:23:12.482Z,10.60
2023-03-13T10:23:38.616Z,10.50
2023-03-13T10:24:03.203Z,10.50
2023-03-13T10:24:30.726Z,10.40
2023-03-13T10:24:56.479Z,10.40
2023-03-13T10:25:25.711Z,10.40
2023-03-13T10:25:48.390Z,10.30
2023-03-13T10:26:14.870Z,10.30
2023-03-13T10:26:37.610Z,10.30
2023-03-13T10:27:00.273Z,10.40
2023-03-13T10:27:23.045Z,10.40
2023-03-13T10:27:50.717Z,10.40
2023-03-13T10:28:19.697Z,10.40
2023-03-13T10:28:42.470Z,10.40
2023-03-13T10:29:22.960Z,10.50
2023-03-13T10:29:45.654Z,10.50
2023-03-13T10:30:12.810Z,10.60
2023-03-13T10:30:36.592Z,10.60
2023-03-13T10:31:02.855Z,10.60
2023-03-13T10:31:27.410Z,10.60
2023-03-13T10:31:56.157Z,10.60
2023-03-13T10:32:19.459Z,10.50
2023-03-13T10:32:42.435Z,10.60
2023-03-13T10:33:20.170Z,10.60
2023-03-13T10:33:43.064Z,10.60
2023-03-13T10:34:08.707Z,10.70
2023-03-13T10:34:44.785Z,10.70
2023-03-13T10:35:11.226Z,10.80
2023-03-13T10:35:36.356Z,10.80
2023-03-13T10:36:05.093Z,10.90
2023-03-13T10:36:27.925Z,10.90
2023-03-13T10:36:54.823Z,10.90
2023-03-13T10:37:21.286Z,11.00
2023-03-13T10:37:44.136Z,11.00
2023-03-13T10:38:09.452Z,11.00
2023-03-13T10:38:34.245Z,11.00
2023-03-13T10:38:56.970Z,11.00
2023-03-13T10:39:21.264Z,11.00
2023-03-13T10:39:44.035Z,11.00
2023-03-13T10:40:14.427Z,10.90
2023-03-13T10:40:37.570Z,10.90
2023-03-13T10:41:01.510Z,11.00
2023-03-13T10:41:29.141Z,10.90
2023-03-13T10:41:56.138Z,10.90
2023-03-13T10:42:22.480Z,10.90
2023-03-13T10:42:45.949Z,10.90
2023-03-13T10:43:15.671Z,11.00
2023-03-13T10:43:38.408Z,10.90
2023-03-13T10:44:03.752Z,11.00
2023-03-13T10:44:31.370Z,11.00
2023-03-13T10:45:01.125Z,11.10
2023-03-13T10:45:25.315Z,11.10
2023-03-13T10:45:48.324Z,11.10
2023-03-13T10:46:11.052Z,11.10
2023-03-13T10:46:34.899Z,11.10
2023-03-13T10:47:00.727Z,11.10
2023-03-13T10:47:23.507Z,11.10
2023-03-13T10:47:46.255Z,11.10
2023-03-13T10:48:13.492Z,11.00
2023-03-13T10:48:37.294Z,11.00
2023-03-13T10:49:01.933Z,11.00
2023-03-13T10:49:24.789Z,11.00
2023-03-13T10:49:48.864Z,10.90
2023-03-13T10:50:18.274Z,10.90
2023-03-13T10:50:44.978Z,10.90
2023-03-13T10:51:12.775Z,10.90
2023-03-13T10:51:37.774Z,10.90
2023-03-13T10:52:01.764Z,10.90
2023-03-13T10:52:33.374Z,10.90
2023-03-13T10:52:56.527Z,10.90
2023-03-13T10:53:31.989Z,10.90
2023-03-13T10:53:54.775Z,10.90
2023-03-13T10:54:22.120Z,10.90
2023-03-13T10:54:44.837Z,10.90
2023-03-13T10:55:10.688Z,10.90
2023-03-13T10:55:33.365Z,11.00
2023-03-13T10:55:58.143Z,11.00
2023-03-13T10:56:25.975Z,11.00
2023-03-13T10:56:48.853Z,11.00
2023-03-13T10:57:26.411Z,11.00
2023-03-13T10:57:55.830Z,11.10
2023-03-13T10:58:20.720Z,11.10
2023-03-13T10:58:44.809Z,11.10
2023-03-13T10:59:21.457Z,11.20
2023-03-13T10:59:45.346Z,11.20
2023-03-13T11:00:28.000Z,11.20
2023-03-13T11:00:50.742Z,11.10
2023-03-13T11:01:18.477Z,11.10
2023-03-13T11:01:45.494Z,11.10
2023-03-13T11:02:20.963Z,11.10
2023-03-13T11:02:45.123Z,11.10
2023-03-13T11:03:14.481Z,11.10
2023-03-13T11:03:37.360Z,11.10
2023-03-13T11:04:03.179Z,11.10
2023-03-13T11:04:30.291Z,11.20
2023-03-13T11:04:55.849Z,11.20
2023-03-13T11:05:31.873Z,11.20
2023-03-13T11:05:59.147Z,11.20
2023-03-13T11:06:29.821Z,11.20
2023-03-13T11:06:53.152Z,11.20
2023-03-13T11:07:16.976Z,11.20
2023-03-13T11:07:40.646Z,11.20
2023-03-13T11:08:21.848Z,11.20
2023-03-13T11:08:44.677Z,11.30
2023-03-13T11:09:12.746Z,11.30
2023-03-13T11:09:35.446Z,11.40
2023-03-13T11:09:59.556Z,11.50
2023-03-13T11:10:23.374Z,11.50
2023-03-13T11:10:54.921Z,11.50
2023-03-13T11:11:19.566Z,11.60
2023-03-13T11:11:47.528Z,11.60
2023-03-13T11:12:12.134Z,11.50
2023-03-13T11:12:35.365Z,11.60
2023-03-13T11:12:58.496Z,11.60
2023-03-13T11:13:36.512Z,11.60
2023-03-13T11:14:08.914Z,11.50
2023-03-13T11:14:31.711Z,11.60
2023-03-13T11:14:58.200Z,11.60
2023-03-13T11:15:23.079Z,11.70
2023-03-13T11:15:48.444Z,11.80
2023-03-13T11:16:20.541Z,11.80
2023-03-13T11:16:50.580Z,11.90
2023-03-13T11:17:19.779Z,11.90
2023-03-13T11:17:43.187Z,11.90
2023-03-13T11:18:08.033Z,12.00
2023-03-13T11:18:33.061Z,12.00
2023-03-13T11:19:10.242Z,12.00
2023-03-13T11:19:42.673Z,12.10
2023-03-13T11:20:20.166Z,12.20
2023-03-13T11:20:43.630Z,12.20
2023-03-13T11:21:17.728Z,12.30
2023-03-13T11:21:45.462Z,12.30
2023-03-13T11:22:17.303Z,12.40
2023-03-13T11:22:53.436Z,12.40
2023-03-13T11:23:19.855Z,12.40
2023-03-13T11:23:44.090Z,12.50
2023-03-13T11:24:09.150Z,12.60
2023-03-13T11:24:36.512Z,12.60
2023-03-13T11:25:17.789Z,12.70
2023-03-13T11:25:43.709Z,12.80
2023-03-13T11:26:10.560Z,12.90
2023-03-13T11:26:35.317Z,12.90
2023-03-13T11:27:04.632Z,13.00
2023-03-13T11:27:30.977Z,12.90
2023-03-13T11:28:09.937Z,13.00
2023-03-13T11:28:41.996Z,13.00
2023-03-13T11:29:09.449Z,12.90
2023-03-13T11:29:36.538Z,12.90
2023-03-13T11:30:19.647Z,13.00
2023-03-13T11:30:51.901Z,12.90
2023-03-13T11:31:15.610Z,12.90
2023-03-13T11:31:40.221Z,12.90
2023-03-13T11:32:07.682Z,12.80
2023-03-13T11:32:36.691Z,12.80
2023-03-13T11:33:01.114Z,12.80
2023-03-13T11:33:30.460Z,12.80
2023-03-13T11:33:58.884Z,12.80
2023-03-13T11:34:28.130Z,12.80
2023-03-13T11:34:52.501Z,12.80
2023-03-13T11:35:33.847Z,12.80
2023-03-13T11:36:01.445Z,12.80
2023-03-13T11:36:29.196Z,12.80
2023-03-13T11:36:53.656Z,12.80
2023-03-13T11:37:16.671Z,12.70
2023-03-13T11:37:39.368Z,12.70
2023-03-13T11:38:02.352Z,12.70
2023-03-13T11:38:27.817Z,12.60
2023-03-13T11:38:53.832Z,12.60
2023-03-13T11:39:37.890Z,12.60
2023-03-13T11:40:07.026Z,12.70
2023-03-13T11:40:31.982Z,12.70
2023-03-13T11:40:59.897Z,12.80
2023-03-13T11:41:31.081Z,12.90
2023-03-13T11:42:00.122Z,12.80
2023-03-13T11:42:47.225Z,12.90
2023-03-13T11:43:28.382Z,12.80
2023-03-13T11:44:21.470Z,12.80
2023-03-13T11:44:48.420Z,12.80
2023-03-13T11:45:17.091Z,12.80
2023-03-13T11:45:57.678Z,12.80
2023-03-13T11:46:26.348Z,12.80
2023-03-13T11:46:54.635Z,12.80
2023-03-13T11:47:25.734Z,12.70
2023-03-13T11:47:53.725Z,12.70
2023-03-13T11:48:19.707Z,12.60
2023-03-13T11:49:03.750Z,12.50
2023-03-13T11:49:53.372Z,12.50
2023-03-13T11:50:23.660Z,12.40
2023-03-13T11:50:48.368Z,12.50
2023-03-13T11:51:14.444Z,12.50
2023-03-13T11:51:43.450Z,12.50
2023-03-13T11:52:13.171Z,12.60
2023-03-13T11:52:43.736Z,12.50
2023-03-13T11:53:21.625Z,12.60
2023-03-13T11:53:57.775Z,12.70
2023-03-13T11:54:36.964Z,12.80
2023-03-13T11:55:18.095Z,12.90
2023-03-13T11:55:58.282Z,13.00
2023-03-13T11:56:22.725Z,13.10
2023-03-13T11:56:47.580Z,13.10
2023-03-13T11:57:13.710Z,13.00
2023-03-13T11:57:40.140Z,13.00
2023-03-13T11:58:15.415Z,13.00
2023-03-13T11:58:53.979Z,13.00
2023-03-13T11:59:26.726Z,13.00
2023-03-13T11:59:52.311Z,13.10
2023-03-13T12:00:23.112Z,13.10
2023-03-13T12:00:48.370Z,13.10
2023-03-13T12:01:12.459Z,13.10
2023-03-13T12:01:38.288Z,13.10
2023-03-13T12:02:03.238Z,13.20
2023-03-13T12:02:27.655Z,13.10
2023-03-13T12:02:52.151Z,13.20
2023-03-13T12:03:16.557Z,13.20
2023-03-13T12:03:40.986Z,13.20
2023-03-13T12:04:05.408Z,13.20
2023-03-13T12:04:30.088Z,13.20
2023-03-13T12:04:54.909Z,13.30
2023-03-13T12:05:19.416Z,13.30
2023-03-13T12:05:45.814Z,13.40
2023-03-13T12:06:27.381Z,13.40
2023-03-13T12:06:54.826Z,13.40
2023-03-13T12:07:21.309Z,13.40
2023-03-13T12:07:47.388Z,13.40
2023-03-13T12:08:12.680Z,13.40
2023-03-13T12:08:36.812Z,13.40
2023-03-13T12:09:03.534Z,13.50
2023-03-13T12:09:28.407Z,13.40
2023-03-13T12:09:53.906Z,13.50
2023-03-13T12:10:18.605Z,13.40
2023-03-13T12:10:43.520Z,13.50
2023-03-13T12:11:12.346Z,13.50
2023-03-13T12:11:43.888Z,13.50
2023-03-13T12:12:12.331Z,13.60
2023-03-13T12:12:38.835Z,13.60
2023-03-13T12:13:04.345Z,13.60
2023-03-13T12:13:29.137Z,13.50
2023-03-13T12:13:54.568Z,13.50
2023-03-13T12:14:18.877Z,13.50
2023-03-13T12:14:43.830Z,13.50
2023-03-13T12:15:23.570Z,13.50
2023-03-13T12:15:47.422Z,13.50
2023-03-13T12:16:12.218Z,13.40
2023-03-13T12:16:40.523Z,13.40
2023-03-13T12:17:04.164Z,13.50
2023-03-13T12:17:31.920Z,13.30
2023-03-13T12:17:56.835Z,13.30
2023-03-13T12:18:21.148Z,13.20
2023-03-13T12:18:44.436Z,13.20
2023-03-13T12:19:10.200Z,13.10
2023-03-13T12:19:36.645Z,13.10
2023-03-13T12:20:01.605Z,13.10
2023-03-13T12:20:25.688Z,13.10
2023-03-13T12:20:53.608Z,13.10
2023-03-13T12:21:19.730Z,13.10
2023-03-13T12:21:45.463Z,13.10
2023-03-13T12:22:14.575Z,13.20
2023-03-13T12:22:39.564Z,13.20
2023-03-13T12:23:17.319Z,13.20
2023-03-13T12:23:44.306Z,13.20
2023-03-13T12:24:10.401Z,13.20
2023-03-13T12:24:34.230Z,13.20
2023-03-13T12:25:00.834Z,13.10
2023-03-13T12:25:25.135Z,13.10
2023-03-13T12:25:52.247Z,13.20
2023-03-13T12:26:15.785Z,13.20
2023-03-13T12:26:41.398Z,13.30
2023-03-13T12:27:09.419Z,13.20
2023-03-13T12:27:33.655Z,13.20
2023-03-13T12:27:58.603Z,13.30
2023-03-13T12:28:29.340Z,13.20
2023-03-13T12:28:59.389Z,13.20
2023-03-13T12:29:28.358Z,13.20
2023-03-13T12:29:55.556Z,13.20
2023-03-13T12:30:26.357Z,13.30
2023-03-13T12:30:50.712Z,13.30
2023-03-13T12:31:18.463Z,13.30
2023-03-13T12:31:42.687Z,13.30
2023-03-13T12:32:08.652Z,13.40
2023-03-13T12:32:35.021Z,13.40
2023-03-13T12:33:02.332Z,13.50
2023-03-13T12:33:26.623Z,13.50
2023-03-13T12:33:53.531Z,13.50
2023-03-13T12:34:18.899Z,13.50
2023-03-13T12:34:47.982Z,13.50
2023-03-13T12:35:18.219Z,13.50
2023-03-13T12:35:41.286Z,13.50
2023-03-13T12:36:08.721Z,13.50
2023-03-13T12:36:33.934Z,13.50
2023-03-13T12:37:01.294Z,13.50
2023-03-13T12:37:29.582Z,13.50
2023-03-13T12:37:54.644Z,13.40
2023-03-13T12:38:20.161Z,13.30
2023-03-13T12:38:46.890Z,13.30
2023-03-13T12:39:21.087Z,13.30
2023-03-13T12:39:50.252Z,13.20
2023-03-13T12:40:16.566Z,13.30
2023-03-13T12:40:42.413Z,13.20
2023-03-13T12:41:18.707Z,13.20
2023-03-13T12:41:43.321Z,13.20
2023-03-13T12:42:16.447Z,13.20
2023-03-13T12:42:45.775Z,13.30
2023-03-13T12:43:11.462Z,13.30
2023-03-13T12:43:34.591Z,13.30
2023-03-13T12:44:08.213Z,13.30
2023-03-13T12:44:31.819Z,13.30
2023-03-13T12:44:54.464Z,13.30
2023-03-13T12:45:18.947Z,13.30
2023-03-13T12:45:54.825Z,13.30
2023-03-13T12:46:43.005Z,13.30
2023-03-13T12:47:09.099Z,13.20
2023-03-13T12:47:32.809Z,13.20
2023-03-13T12:48:13.791Z,13.20
2023-03-13T12:48:56.242Z,13.30
2023-03-13T12:50:04.501Z,13.40
2023-03-13T12:50:32.262Z,13.50
2023-03-13T12:51:07.836Z,13.50
2023-03-13T12:51:40.645Z,13.60
2023-03-13T12:52:22.101Z,13.60
2023-03-13T12:53:02.401Z,13.60
2023-03-13T12:53:53.715Z,13.70
2023-03-13T12:54:32.872Z,13.70
2023-03-13T12:55:09.053Z,13.80
2023-03-13T12:55:58.844Z,13.80
2023-03-13T12:56:44.648Z,13.80
2023-03-13T12:57:17.141Z,13.70
2023-03-13T12:58:10.755Z,13.70
2023-03-13T12:58:45.347Z,13.70
2023-03-13T12:59:08.656Z,13.70
2023-03-13T12:59:32.826Z,13.70
2023-03-13T12:59:56.396Z,13.60
2023-03-13T13:00:20.550Z,13.60
2023-03-13T13:00:44.983Z,13.60
2023-03-13T13:01:07.907Z,13.60
2023-03-13T13:01:33.450Z,13.60
2023-03-13T13:01:56.869Z,13.60
2023-03-13T13:02:21.042Z,13.60
2023-03-13T13:02:43.786Z,13.60
2023-03-13T13:03:11.051Z,13.60
2023-03-13T13:03:36.575Z,13.60
2023-03-13T13:04:00.547Z,13.70
2023-03-13T13:04:43.481Z,13.60
2023-03-13T13:05:24.910Z,13.60
2023-03-13T13:06:07.669Z,13.70
2023-03-13T13:06:57.777Z,13.70
2023-03-13T13:07:40.649Z,13.70
2023-03-13T13:08:05.234Z,13.70
2023-03-13T13:08:27.887Z,13.70
2023-03-13T13:09:08.408Z,13.70
2023-03-13T13:09:31.815Z,13.80
2023-03-13T13:10:03.375Z,13.90
2023-03-13T13:10:26.715Z,13.90
2023-03-13T13:10:49.503Z,13.90
2023-03-13T13:11:47.391Z,13.90
2023-03-13T13:12:20.059Z,14.10
2023-03-13T13:12:42.864Z,14.10
2023-03-13T13:13:20.067Z,14.10
2023-03-13T13:13:42.793Z,14.10
2023-03-13T13:14:27.258Z,14.10
2023-03-13T13:15:04.273Z,14.10
2023-03-13T13:15:27.270Z,14.20
2023-03-13T13:15:59.958Z,14.20
2023-03-13T13:16:22.943Z,14.10
2023-03-13T13:16:46.698Z,14.10
2023-03-13T13:17:16.845Z,14.10
2023-03-13T13:18:01.260Z,14.00
2023-03-13T13:18:27.376Z,14.00
2023-03-13T13:18:50.319Z,14.00
2023-03-13T13:19:46.428Z,14.00
2023-03-13T13:20:44.438Z,14.10
2023-03-13T13:21:21.965Z,14.20
2023-03-13T13:21:44.802Z,14.20
2023-03-13T13:22:40.789Z,14.20
2023-03-13T13:23:34.020Z,14.30
2023-03-13T13:24:00.117Z,14.20
2023-03-13T13:24:41.766Z,14.20
2023-03-13T13:25:27.682Z,14.20
2023-03-13T13:25:50.568Z,14.20
2023-03-13T13:26:49.540Z,14.20
2023-03-13T13:27:44.953Z,14.20
2023-03-13T13:28:35.146Z,14.20
2023-03-13T13:28:58.577Z,14.20
2023-03-13T13:29:57.007Z,14.20
2023-03-13T13:30:38.176Z,14.20
2023-03-13T13:31:01.028Z,14.20
2023-03-13T13:31:57.196Z,14.20
2023-03-13T13:32:20.037Z,14.30
2023-03-13T13:32:45.110Z,14.30
2023-03-13T13:33:38.540Z,14.30
2023-03-13T13:34:01.184Z,14.30
2023-03-13T13:34:54.770Z,14.40
2023-03-13T13:35:33.305Z,14.50
2023-03-13T13:36:27.605Z,14.40
2023-03-13T13:36:50.315Z,14.40
2023-03-13T13:37:26.298Z,14.40
2023-03-13T13:37:49.658Z,14.40
2023-03-13T13:38:39.874Z,14.40
2023-03-13T13:39:03.558Z,14.40
2023-03-13T13:39:36.334Z,14.50
2023-03-13T13:40:20.796Z,14.40
2023-03-13T13:40:57.914Z,14.40
2023-03-13T13:41:34.776Z,14.40
2023-03-13T13:41:57.545Z,14.40
2023-03-13T13:42:48.638Z,14.40
2023-03-13T13:43:21.450Z,14.40
2023-03-13T13:43:44.485Z,14.40
2023-03-13T13:44:27.317Z,14.40
2023-03-13T13:44:59.046Z,14.30
2023-03-13T13:45:29.769Z,14.40
2023-03-13T13:45:59.779Z,14.30
2023-03-13T13:46:24.953Z,14.30
2023-03-13T13:46:47.821Z,14.30
2023-03-13T13:47:22.317Z,14.30
2023-03-13T13:47:46.505Z,14.30
2023-03-13T13:48:28.075Z,14.30
2023-03-13T13:49:12.345Z,14.30
2023-03-13T13:49:56.050Z,14.40
2023-03-13T13:50:20.053Z,14.40
2023-03-13T13:51:15.789Z,14.40
2023-03-13T13:51:38.919Z,14.50
2023-03-13T13:52:35.840Z,14.60
2023-03-13T13:53:24.796Z,14.60
2023-03-13T13:53:50.891Z,14.60
2023-03-13T13:54:32.019Z,14.60
2023-03-13T13:54:56.701Z,14.60
2023-03-13T13:55:33.788Z,14.60
2023-03-13T13:55:58.921Z,14.70
2023-03-13T13:56:39.493Z,14.70
2023-03-13T13:57:03.366Z,14.70
2023-03-13T13:57:26.527Z,14.70
2023-03-13T13:57:49.930Z,14.70
2023-03-13T13:58:15.211Z,14.80
2023-03-13T13:58:39.843Z,14.70
2023-03-13T13:59:05.225Z,14.70
2023-03-13T13:59:36.910Z,14.70
2023-03-13T14:00:05.790Z,14.70
2023-03-13T14:00:29.287Z,14.70
2023-03-13T14:00:54.342Z,14.70
2023-03-13T14:01:17.081Z,14.70